CheckWX is a tool to help pilots better visualize weather data.  It is not intended as a substitute for an official pre-flight weather briefing.

06:41:08 UTC

KRCM METAR
Skyhaven Airport
Warrensburg, Missouri, USA
Current

6 mins ago

KRCM 120635Z AUTO 29003KT 10SM 23/20 A2992 RMK AO2
Observed
Jul-12 @ 06:35 UTC
Wind
  • 290° at 3 KTS
Visibility
10 SM
Cloud Levels
Temperature
23°C / 73°F
Dewpoint
20°C / 68°F
Humidity
83%
Altimeter
29.92" Hg
Pressure
1013.22 hPa
Previous

26 mins ago

KRCM 120615Z AUTO 26003KT 10SM 23/20 A2993 RMK AO2
Observed
Jul-12 @ 06:15 UTC
Wind
  • 260° at 3 KTS
Visibility
10 SM
Cloud Levels
Temperature
23°C / 73°F
Dewpoint
20°C / 68°F
Humidity
83%
Altimeter
29.93" Hg
Pressure
1013.52 hPa
Previous

46 mins ago

KRCM 120555Z AUTO 28004KT 10SM 24/21 A2993 RMK AO2
Observed
Jul-12 @ 05:55 UTC
Wind
  • 280° at 4 KTS
Visibility
10 SM
Cloud Levels
Temperature
24°C / 75°F
Dewpoint
21°C / 70°F
Humidity
83%
Altimeter
29.93" Hg
Pressure
1013.52 hPa